Main page
METAR-TAF:

METAR-TAF

Airports :

Barra do Garças Airport

Barra do Garças, Mato Grosso, Brazil

latitude: 15-52S, longitude: 052-23W, elevation: 350 m

Current weather observation

The report was made 47 minutes ago, at 16:00 UTC
Wind 2 kt from the West/Northwest
Temperature 30°C
Humidity 62%
Pressure 1013 hPa
Visibility 10 km or more
Broken clouds at a height of 2000 ft
Few clouds at a height of 2500 ft, Towering cumulus.
showers in vicinity

METAR: SBBW 211600Z 30002KT 9999 VCSH BKN020 FEW025TCU 30/22 Q1013

Time: 12:47 (16:47 UTC)

Forecast

The report was made 6 hours and 47 minutes ago, at 10:00 UTC
Forecast valid from 21 at 12 UTC to 21 at 24 UTC
Wind 8 kt from the East/Northeast
Visibility 10 km or more
Scattered clouds at a height of 2000 ft

TAF: SBBW 211000Z 2112/2124 07008KT 9999 SCT020 TN27/2112Z TX33/2118Z RMK PED

Weather observations and forecasts of more than 4000 airports (METAR and TAF reports).

The available stations are represented by yellow and red dots on the map.

Hover mouse over dot to see the name of the station.

Then click to see weather observations and forecasts.

To change the map : click on the green buttons with a black cross to zoom in, on the green button with a dash to zoom out, or on the green arrows for adjacent maps.


METAR-TAF: